Time;durP1;ratioP1;P1;durP2;ratioP2;P2;SDS_P1;SDS_P2;PMS_P1;PMS_P2;Temp;Humidity;BMP_temperature;BMP_pressure;BME280_temperature;BME280_humidity;BME280_pressure;Samples;Min_cycle;Max_cycle;Signal;HPM_P1;HPM_P2
2022/03/03 00:03:19;;;;;;;33.53;18.20;;;;;;;-2.82;83.14;101871.56;10346180;28;20073;-78
2022/03/03 00:08:19;;;;;;;26.40;17.63;;;;;;;-2.83;83.85;101874.84;10315408;28;20117;-78
2022/03/03 00:13:20;;;;;;;27.70;16.60;;;;;;;-2.87;83.59;101869.19;10366415;28;20111;-78
2022/03/03 00:18:21;;;;;;;24.50;14.47;;;;;;;-2.97;83.93;101872.31;10341659;28;20655;-78
2022/03/03 00:23:21;;;;;;;31.17;19.37;;;;;;;-3.00;84.08;101864.28;10298658;28;20062;-78
2022/03/03 00:28:22;;;;;;;32.43;18.33;;;;;;;-3.11;83.99;101871.59;10327426;28;20133;-78
2022/03/03 00:33:22;;;;;;;39.40;20.07;;;;;;;-3.17;84.44;101859.72;10373641;28;20080;-78
2022/03/03 00:38:23;;;;;;;31.63;17.63;;;;;;;-3.34;84.53;101862.84;10346459;28;20062;-78
2022/03/03 00:43:24;;;;;;;34.43;18.53;;;;;;;-3.48;84.65;101864.66;10314091;28;20034;-79
2022/03/03 00:48:24;;;;;;;24.87;15.57;;;;;;;-3.49;85.13;101854.22;10315578;28;20049;-78
2022/03/03 00:53:25;;;;;;;20.57;13.57;;;;;;;-3.59;85.01;101860.81;10306913;28;20073;-78
2022/03/03 00:58:25;;;;;;;17.77;11.00;;;;;;;-3.51;85.50;101856.63;10371823;28;20121;-79
2022/03/03 01:03:26;;;;;;;28.03;17.23;;;;;;;-3.50;85.80;101854.97;10353972;28;20057;-78
2022/03/03 01:08:26;;;;;;;30.83;19.47;;;;;;;-3.56;85.99;101855.16;10296703;28;20084;-78
2022/03/03 01:13:27;;;;;;;32.70;19.83;;;;;;;-3.63;86.18;101853.50;10348290;28;20489;-78
2022/03/03 01:18:27;;;;;;;30.10;19.53;;;;;;;-3.65;86.37;101851.50;10372516;28;20061;-78
2022/03/03 01:23:28;;;;;;;32.37;17.73;;;;;;;-3.63;86.32;101843.25;10352804;28;20546;-78
2022/03/03 01:28:28;;;;;;;24.47;17.13;;;;;;;-3.68;86.42;101849.47;10353816;28;20068;-78
2022/03/03 01:33:29;;;;;;;33.60;19.33;;;;;;;-3.71;86.75;101842.34;10336346;28;20057;-78
2022/03/03 01:38:29;;;;;;;23.67;16.47;;;;;;;-3.63;86.96;101838.13;10312468;28;20066;-78
2022/03/03 01:43:30;;;;;;;31.63;19.83;;;;;;;-3.56;87.12;101827.91;10313499;28;20069;-79
2022/03/03 01:48:30;;;;;;;33.03;20.27;;;;;;;-3.59;86.54;101822.41;10331367;28;20044;-78
2022/03/03 01:53:31;;;;;;;32.73;19.20;;;;;;;-3.51;85.80;101812.19;10299454;28;20022;-79
2022/03/03 01:58:31;;;;;;;27.87;17.57;;;;;;;-3.47;85.91;101817.88;10297595;28;20035;-78
2022/03/03 02:03:32;;;;;;;34.10;20.07;;;;;;;-3.57;85.87;101813.28;10362394;28;20116;-78
2022/03/03 02:08:33;;;;;;;28.37;17.93;;;;;;;-3.66;86.21;101801.94;10352485;28;20474;-78
2022/03/03 02:13:34;;;;;;;33.00;17.47;;;;;;;-3.67;85.65;101800.13;10317097;28;20066;-78
2022/03/03 02:18:44;;;;;;;32.58;20.55;;;;;;;-3.60;85.94;101804.34;10329018;28;20042;-78
2022/03/03 02:23:44;;;;;;;32.78;18.50;;;;;;;-3.64;85.30;101802.16;10310864;28;20034;-78
2022/03/03 02:28:46;;;;;;;28.17;17.60;;;;;;;-3.76;84.90;101799.00;10343867;28;20120;-78
2022/03/03 02:33:46;;;;;;;;;;;;;;;-3.64;85.28;101797.03;10318179;28;20173;-78
2022/03/03 02:38:48;;;;;;;32.15;17.55;;;;;;;-3.80;85.67;101791.69;10336016;28;20016;-78
2022/03/03 02:43:49;;;;;;;34.60;19.48;;;;;;;-3.85;86.68;101786.94;10317606;28;20081;-78
2022/03/03 02:48:49;;;;;;;36.90;20.70;;;;;;;-4.00;86.50;101783.47;10302534;28;20034;-78
2022/03/03 02:53:50;;;;;;;39.53;20.00;;;;;;;-4.10;86.71;101782.16;10303160;28;20462;-78
2022/03/03 02:58:50;;;;;;;33.20;17.37;;;;;;;-4.20;86.55;101772.50;10288634;28;20042;-78
2022/03/03 03:03:51;;;;;;;28.63;15.50;;;;;;;-4.13;86.21;101767.38;10335108;28;20078;-78
2022/03/03 03:08:51;;;;;;;28.63;16.50;;;;;;;-4.23;86.24;101770.47;10364935;28;20435;-79
2022/03/03 03:13:52;;;;;;;28.60;19.03;;;;;;;-4.32;86.56;101767.72;10351051;28;20058;-78
2022/03/03 03:18:52;;;;;;;36.97;18.70;;;;;;;-4.42;86.33;101758.00;10303035;28;20065;-78
2022/03/03 03:23:53;;;;;;;25.70;14.57;;;;;;;-4.37;87.17;101762.75;10316989;28;20096;-79
2022/03/03 03:28:53;;;;;;;31.57;17.40;;;;;;;-4.36;87.70;101767.13;10300568;28;20030;-78
2022/03/03 03:33:54;;;;;;;33.37;20.50;;;;;;;-4.39;87.74;101769.31;10340610;28;20109;-78
2022/03/03 03:38:54;;;;;;;19.33;12.27;;;;;;;-4.53;87.68;101754.88;10358097;28;20072;-79
2022/03/03 03:43:55;;;;;;;29.33;19.47;;;;;;;-4.42;87.78;101762.22;10355585;28;20073;-78
2022/03/03 03:48:56;;;;;;;35.73;19.63;;;;;;;-4.29;87.94;101752.75;10309788;28;20077;-79
2022/03/03 03:53:56;;;;;;;33.80;21.27;;;;;;;-4.44;88.11;101753.44;10307645;28;20474;-79
2022/03/03 03:58:57;;;;;;;36.80;20.20;;;;;;;-4.60;87.95;101755.75;10340977;28;20057;-78
2022/03/03 04:03:57;;;;;;;32.13;19.43;;;;;;;-4.65;88.45;101757.75;10334014;28;20128;-78
2022/03/03 04:08:59;;;;;;;36.77;22.27;;;;;;;-4.76;88.10;101748.78;10333809;28;20030;-79
2022/03/03 04:14:00;;;;;;;36.00;20.73;;;;;;;-4.76;88.25;101751.31;10307048;28;20037;-78
2022/03/03 04:19:01;;;;;;;48.43;21.87;;;;;;;-4.76;88.62;101738.56;10374211;28;20480;-78
2022/03/03 04:24:01;;;;;;;33.43;20.33;;;;;;;-4.81;88.59;101725.97;10339273;28;20116;-79
2022/03/03 04:29:02;;;;;;;35.90;21.17;;;;;;;-4.85;88.62;101731.41;10338876;28;20030;-78
2022/03/03 04:34:02;;;;;;;26.73;18.70;;;;;;;-4.95;88.48;101730.28;10316710;28;20026;-78
2022/03/03 04:39:03;;;;;;;35.70;18.10;;;;;;;-5.01;88.01;101722.75;10338478;28;20022;-78
2022/03/03 04:44:04;;;;;;;35.40;19.30;;;;;;;-4.87;88.38;101724.47;10355663;28;20173;-78
2022/03/03 04:49:04;;;;;;;36.20;22.43;;;;;;;-4.77;88.56;101718.84;10356156;28;20038;-79
2022/03/03 04:54:05;;;;;;;36.33;18.73;;;;;;;-4.72;88.71;101714.31;10337693;28;20038;-78
2022/03/03 04:59:06;;;;;;;21.17;13.83;;;;;;;-4.80;88.52;101715.91;10297118;28;20030;-79
2022/03/03 05:04:06;;;;;;;35.03;21.00;;;;;;;-4.92;88.30;101720.44;10297885;28;20022;-78
2022/03/03 05:09:07;;;;;;;31.57;18.53;;;;;;;-4.92;88.54;101717.91;10330725;28;20119;-79
2022/03/03 05:14:07;;;;;;;31.57;19.23;;;;;;;-4.97;88.71;101703.66;10299417;28;20049;-78
2022/03/03 05:19:08;;;;;;;30.23;19.00;;;;;;;-4.81;88.26;101702.97;10345078;28;20034;-78
2022/03/03 05:24:08;;;;;;;28.53;16.20;;;;;;;-4.73;88.46;101694.59;10327391;28;20064;-79
2022/03/03 05:29:09;;;;;;;31.90;20.30;;;;;;;-4.67;88.63;101692.78;10308446;28;20053;-78
2022/03/03 05:34:09;;;;;;;32.07;18.87;;;;;;;-4.60;87.69;101699.53;10330726;28;20421;-79
2022/03/03 05:39:10;;;;;;;35.53;19.43;;;;;;;-4.44;87.45;101704.88;10354094;28;20244;-79
2022/03/03 05:44:14;;;;;;;30.05;18.10;;;;;;;-4.49;86.50;101704.31;10322816;28;20057;-79
2022/03/03 05:49:16;;;;;;;33.13;19.38;;;;;;;-4.52;86.38;101698.84;10357352;28;20050;-79
2022/03/03 05:54:16;;;;;;;32.22;20.45;;;;;;;-4.72;86.43;101707.53;10309102;28;20034;-79
2022/03/03 05:59:17;;;;;;;31.00;17.10;;;;;;;-4.88;86.47;101697.13;10315555;28;20058;-78
2022/03/03 06:04:18;;;;;;;37.50;21.80;;;;;;;-4.81;86.87;101700.41;10315984;28;20042;-79
2022/03/03 06:09:18;;;;;;;35.13;19.47;;;;;;;-4.77;87.27;101710.28;10348180;28;20121;-79
2022/03/03 06:14:23;;;;;;;;;;;;;;;-4.65;87.28;101708.28;10319619;28;20493;-79
2022/03/03 06:19:24;;;;;;;34.65;18.83;;;;;;;-4.75;87.29;101707.16;10342541;28;20011;-79
2022/03/03 06:24:24;;;;;;;34.70;19.83;;;;;;;-4.77;87.08;101703.50;10353999;28;20030;-79
2022/03/03 06:29:25;;;;;;;32.00;20.57;;;;;;;-4.68;87.10;101700.25;10318952;28;20065;-79
2022/03/03 06:34:25;;;;;;;26.43;15.50;;;;;;;-4.60;87.37;101699.53;10297591;28;20037;-78
2022/03/03 06:39:26;;;;;;;29.23;18.50;;;;;;;-4.55;87.38;101703.56;10328460;28;20117;-79
2022/03/03 06:44:27;;;;;;;32.53;18.13;;;;;;;-4.47;87.33;101697.75;10332420;28;20498;-78
2022/03/03 06:49:28;;;;;;;30.47;14.70;;;;;;;-4.49;87.94;101701.75;10345414;28;20084;-78
2022/03/03 06:54:29;;;;;;;29.50;18.50;;;;;;;-4.37;86.80;101711.63;10329668;28;20074;-78
2022/03/03 06:59:33;;;;;;;31.10;18.50;;;;;;;-4.33;87.10;101706.16;10288933;28;20034;-78
2022/03/03 07:04:34;;;;;;;35.55;17.95;;;;;;;-4.08;87.65;101706.56;10322518;28;20037;-77
2022/03/03 07:09:36;;;;;;;31.10;17.88;;;;;;;-3.80;87.44;101710.78;10349572;28;20044;-78
2022/03/03 07:14:37;;;;;;;29.30;16.87;;;;;;;-2.65;86.86;101706.03;10346734;28;20069;-77
2022/03/03 07:19:37;;;;;;;27.85;15.30;;;;;;;-0.69;78.47;101702.50;10330399;28;20061;-78
2022/03/03 07:24:58;;;;;;;25.63;15.98;;;;;;;-0.19;75.99;101700.88;10333602;28;20100;-78
2022/03/03 07:30:01;;;;;;;23.60;14.60;;;;;;;2.14;67.09;101691.88;10333442;28;20038;-75
2022/03/03 07:35:06;;;;;;;20.55;12.70;;;;;;;3.12;57.94;101688.84;10326579;28;20509;-76
2022/03/03 07:40:08;;;;;;;23.35;11.13;;;;;;;3.49;57.97;101686.97;10300447;28;20755;-81
2022/03/03 07:45:08;;;;;;;;;;;;;;;2.17;62.51;101694.75;10322367;28;20042;-80
2022/03/03 07:50:12;;;;;;;22.83;12.95;;;;;;;1.50;63.00;101700.41;10338818;28;19917;-81
2022/03/03 07:55:12;;;;;;;17.63;11.50;;;;;;;1.43;61.06;101709.25;10334525;28;20038;-81
2022/03/03 08:00:16;;;;;;;27.15;16.30;;;;;;;1.46;63.35;101713.03;10294489;28;20389;-80
2022/03/03 08:05:16;;;;;;;21.30;11.80;;;;;;;1.54;64.26;101723.19;10336817;28;20030;-81
2022/03/03 08:10:17;;;;;;;23.08;12.38;;;;;;;1.57;63.98;101724.41;10325933;28;20496;-81
2022/03/03 08:15:17;;;;;;;24.60;12.23;;;;;;;1.95;60.81;101728.88;10327153;28;20092;-81
2022/03/03 08:20:18;;;;;;;20.35;14.48;;;;;;;2.09;67.00;101729.28;10320962;28;20423;-81
2022/03/03 08:25:19;;;;;;;18.60;11.95;;;;;;;2.38;61.93;101738.88;10321999;28;20026;-82
2022/03/03 08:30:19;;;;;;;22.17;14.77;;;;;;;2.55;63.75;101727.56;10355791;28;20065;-83
2022/03/03 08:35:27;;;;;;;20.05;12.77;;;;;;;2.95;59.69;101733.88;10327949;28;20061;-82
2022/03/03 08:40:28;;;;;;;24.75;13.52;;;;;;;3.13;55.13;101726.88;10330422;28;20379;-85
2022/03/03 08:45:29;;;;;;;19.80;11.32;;;;;;;3.28;56.25;101722.19;10306192;28;20037;-83
2022/03/03 08:50:30;;;;;;;23.50;10.40;;;;;;;3.58;54.56;101725.72;10321835;28;20092;-83
2022/03/03 08:55:31;;;;;;;22.80;14.27;;;;;;;3.87;54.95;101716.13;10352888;28;20030;-84
2022/03/03 09:00:32;;;;;;;22.65;14.90;;;;;;;3.82;51.62;101724.41;10352232;28;20378;-82
2022/03/03 09:05:32;;;;;;;18.50;12.57;;;;;;;3.92;53.96;101722.63;10330228;28;20375;-81
2022/03/03 09:10:33;;;;;;;20.75;12.68;;;;;;;4.20;52.86;101720.78;10306788;28;20040;-82
2022/03/03 09:15:34;;;;;;;18.40;12.52;;;;;;;4.51;50.96;101713.06;10333211;28;20026;-81
2022/03/03 09:20:38;;;;;;;20.13;12.25;;;;;;;4.63;49.94;101710.59;10315904;28;20085;-80
2022/03/03 09:25:39;;;;;;;20.73;12.30;;;;;;;4.96;52.92;101706.44;10328515;28;20033;-83
2022/03/03 09:30:43;;;;;;;17.47;10.37;;;;;;;5.10;49.93;101711.88;10351913;28;20046;-81
2022/03/03 09:35:43;;;;;;;22.02;12.60;;;;;;;5.28;48.87;101712.50;10338652;28;20073;-82
2022/03/03 09:40:48;;;;;;;16.80;11.68;;;;;;;6.11;50.26;101702.72;10325782;28;20026;-82
2022/03/03 09:45:49;;;;;;;20.13;12.40;;;;;;;8.48;43.62;101693.19;10325026;28;20058;-82
2022/03/03 09:50:49;;;;;;;18.33;12.33;;;;;;;12.28;34.04;101684.13;10330929;28;20072;-81
2022/03/03 09:55:50;;;;;;;17.92;11.15;;;;;;;13.63;31.51;101683.09;10352692;28;20088;-81
2022/03/03 10:00:50;;;;;;;17.23;12.57;;;;;;;14.82;29.71;101671.81;10355223;28;20117;-81
2022/03/03 10:05:52;;;;;;;15.23;12.30;;;;;;;15.58;28.97;101663.47;10356570;28;20030;-82
2022/03/03 10:10:57;;;;;;;14.98;10.65;;;;;;;16.09;27.32;101667.22;10313386;28;20041;-81
2022/03/03 10:15:59;;;;;;;15.60;9.63;;;;;;;15.66;27.20;101661.13;10319382;28;20034;-82
2022/03/03 10:21:02;;;;;;;16.98;10.82;;;;;;;15.73;27.74;101660.53;10332535;28;20057;-83
2022/03/03 10:26:04;;;;;;;17.83;12.80;;;;;;;17.14;25.94;101654.16;10336727;28;20033;-82
2022/03/03 10:31:06;;;;;;;;;;;;;;;18.45;24.46;101659.94;10338646;28;21089;-83
2022/03/03 10:36:19;;;;;;;14.25;10.02;;;;;;;16.88;26.65;101657.72;10319055;28;20012;-86
2022/03/03 10:41:39;;;;;;;17.90;11.55;;;;;;;18.45;24.59;101651.97;10310571;28;20397;-86
2022/03/03 10:47:09;;;;;;;14.43;10.18;;;;;;;19.21;22.83;101653.06;10333095;28;20080;-87
2022/03/03 10:52:18;;;;;;;15.77;10.75;;;;;;;18.17;23.51;101651.19;10352430;28;20042;-88
2022/03/03 10:57:34;;;;;;;15.85;11.63;;;;;;;18.25;23.58;101643.47;10325062;28;20069;-87
2022/03/03 11:02:35;;;;;;;13.95;11.05;;;;;;;18.09;23.67;101644.78;10356295;28;20076;-87
2022/03/03 11:07:38;;;;;;;14.75;8.63;;;;;;;17.76;24.07;101649.09;10353490;28;20125;-87
2022/03/03 11:12:39;;;;;;;17.15;12.18;;;;;;;18.52;23.69;101646.84;10337666;28;20034;-86
2022/03/03 11:17:41;;;;;;;17.48;9.50;;;;;;;18.61;22.87;101644.44;10315500;28;20041;-86
2022/03/03 11:22:42;;;;;;;14.37;10.07;;;;;;;18.82;23.93;101637.91;10319017;28;20030;-83
2022/03/03 11:27:42;;;;;;;14.35;10.82;;;;;;;18.55;22.16;101631.03;10348814;28;20042;-83
2022/03/03 11:32:43;;;;;;;16.88;10.52;;;;;;;17.46;23.05;101622.56;10351086;28;20041;-81
2022/03/03 11:37:44;;;;;;;16.95;11.15;;;;;;;18.28;22.65;101614.44;10331858;28;20113;-82
2022/03/03 11:42:53;;;;;;;13.80;9.63;;;;;;;18.31;22.64;101611.84;10318541;28;20446;-82
2022/03/03 11:48:08;;;;;;;14.02;10.18;;;;;;;19.04;22.40;101592.53;10317062;28;20081;-82
2022/03/03 11:53:09;;;;;;;15.10;9.77;;;;;;;19.89;20.89;101590.00;10334413;28;20113;-83
2022/03/03 11:58:15;;;;;;;16.83;11.07;;;;;;;18.91;21.40;101601.00;10347957;28;20902;-81
2022/03/03 12:03:17;;;;;;;15.55;10.45;;;;;;;19.11;22.13;101595.34;10327354;28;20477;-82
2022/03/03 12:08:17;;;;;;;16.25;11.07;;;;;;;19.44;21.96;101595.25;10341069;28;20064;-82
2022/03/03 12:13:26;;;;;;;16.48;11.45;;;;;;;19.71;22.21;101588.75;10355214;28;20116;-82
2022/03/03 12:18:34;;;;;;;15.95;11.05;;;;;;;20.29;21.77;101590.81;10339170;28;20030;-83
2022/03/03 12:23:35;;;;;;;15.27;10.75;;;;;;;19.39;21.57;101582.72;10355301;28;20037;-82
2022/03/03 12:28:47;;;;;;;15.05;10.45;;;;;;;19.12;23.16;101573.25;10335675;28;20053;-82
2022/03/03 12:34:01;;;;;;;15.60;11.83;;;;;;;20.08;21.14;101567.38;10346902;28;20030;-80
2022/03/03 12:39:03;;;;;;;17.17;12.63;;;;;;;19.32;21.96;101563.13;10304898;28;20025;-80
2022/03/03 12:44:04;;;;;;;13.55;10.30;;;;;;;18.46;22.49;101561.00;10337119;28;20398;-80
2022/03/03 12:49:05;;;;;;;16.30;11.27;;;;;;;19.35;22.54;101561.41;10327781;28;20041;-78
2022/03/03 12:54:06;;;;;;;17.13;11.33;;;;;;;20.13;21.76;101568.34;10328792;28;20129;-80
2022/03/03 12:59:07;;;;;;;18.25;10.88;;;;;;;20.23;20.97;101559.69;10324955;28;20026;-78
2022/03/03 13:04:07;;;;;;;14.23;11.10;;;;;;;20.33;20.74;101552.81;10351563;28;20149;-79
2022/03/03 13:09:08;;;;;;;17.15;12.82;;;;;;;20.07;20.99;101554.94;10371947;28;20117;-79
2022/03/03 13:14:09;;;;;;;18.15;12.30;;;;;;;19.80;20.89;101537.56;10340495;28;20377;-81
2022/03/03 13:19:10;;;;;;;14.07;11.13;;;;;;;19.64;20.42;101533.72;10330967;28;20707;-81
2022/03/03 13:24:10;;;;;;;15.15;10.82;;;;;;;19.67;21.78;101537.31;10330769;28;20065;-81
2022/03/03 13:29:18;;;;;;;17.13;10.35;;;;;;;19.63;19.92;101537.25;10282893;28;20543;-81
2022/03/03 13:34:28;;;;;;;14.98;9.20;;;;;;;20.50;20.79;101526.50;10297549;28;20026;-81
2022/03/03 13:39:33;;;;;;;14.05;10.50;;;;;;;19.64;19.38;101537.25;10313432;28;20054;-81
2022/03/03 13:44:34;;;;;;;14.88;9.80;;;;;;;18.80;20.74;101542.44;10298222;28;20085;-83
2022/03/03 13:49:37;;;;;;;23.50;10.35;;;;;;;19.17;19.83;101532.72;10331617;28;20027;-83
2022/03/03 13:54:44;;;;;;;18.50;9.68;;;;;;;18.20;20.12;101529.41;10296998;28;20089;-83
2022/03/03 13:59:58;;;;;;;13.57;9.02;;;;;;;18.93;19.82;101520.66;10330365;28;20093;-83
2022/03/03 14:04:59;;;;;;;11.25;8.73;;;;;;;18.68;19.46;101511.19;10296156;28;20054;-84
2022/03/03 14:10:09;;;;;;;12.63;9.70;;;;;;;19.42;19.72;101513.78;10334638;28;20410;-83
2022/03/03 14:15:20;;;;;;;14.35;10.48;;;;;;;19.11;19.92;101510.44;10353457;28;20470;-84
2022/03/03 14:20:20;;;;;;;15.98;8.93;;;;;;;18.38;20.08;101506.91;10357598;28;20026;-83
2022/03/03 14:25:22;;;;;;;11.25;9.05;;;;;;;19.06;19.73;101508.59;10378917;28;20076;-84
2022/03/03 14:30:23;;;;;;;13.70;9.23;;;;;;;18.79;18.76;101507.03;10377443;28;20033;-84
2022/03/03 14:35:24;;;;;;;11.32;9.15;;;;;;;18.44;20.06;101506.19;10355459;28;20037;-83
2022/03/03 14:40:24;;;;;;;14.95;10.85;;;;;;;18.20;21.38;101510.00;10349155;28;20056;-82
2022/03/03 14:45:25;;;;;;;12.52;8.13;;;;;;;17.90;21.17;101505.63;10373896;28;20498;-82
2022/03/03 14:50:26;;;;;;;11.70;8.20;;;;;;;18.59;21.81;101503.91;10346404;28;20042;-81
2022/03/03 14:55:27;;;;;;;11.87;8.40;;;;;;;19.15;21.51;101501.69;10323284;28;20026;-81
2022/03/03 15:00:30;;;;;;;13.73;9.05;;;;;;;19.11;21.62;101503.41;10343923;28;20041;-81
2022/03/03 15:05:30;;;;;;;11.75;9.15;;;;;;;18.75;19.48;101499.88;10375932;28;20088;-84
2022/03/03 15:10:31;;;;;;;15.73;10.00;;;;;;;17.72;20.74;101496.31;10342614;28;20030;-84
2022/03/03 15:15:32;;;;;;;11.68;7.75;;;;;;;17.84;21.26;101490.44;10342405;28;20455;-84
2022/03/03 15:20:32;;;;;;;14.68;9.88;;;;;;;17.41;21.62;101498.06;10325292;28;20125;-84
2022/03/03 15:25:33;;;;;;;14.38;10.25;;;;;;;17.48;21.57;101500.91;10358462;28;20030;-84
2022/03/03 15:30:35;;;;;;;10.05;8.65;;;;;;;17.05;24.56;101503.13;10340243;28;20025;-83
2022/03/03 15:40:55;;;;;;;9.68;8.23;;;;;;;14.35;25.33;101497.69;10374995;28;20030;-84
2022/03/03 15:45:55;;;;;;;15.95;8.20;;;;;;;13.60;27.39;101490.94;10374996;28;20124;-83
2022/03/03 15:50:56;;;;;;;13.90;8.68;;;;;;;12.84;26.90;101494.38;10357795;28;20030;-84
2022/03/03 15:55:57;;;;;;;13.52;7.85;;;;;;;12.76;27.73;101500.16;10374118;28;20045;-83
2022/03/03 16:00:57;;;;;;;14.75;9.35;;;;;;;12.14;29.25;101502.34;10374130;28;20124;-83
2022/03/03 16:05:58;;;;;;;13.35;8.40;;;;;;;11.84;28.98;101501.59;10356024;28;20061;-81
2022/03/03 16:10:58;;;;;;;14.20;9.23;;;;;;;11.59;28.66;101502.91;10334885;28;20030;-83
2022/03/03 16:15:59;;;;;;;13.85;8.45;;;;;;;10.92;31.34;101504.53;10325984;28;20021;-82
2022/03/03 16:20:59;;;;;;;12.65;8.20;;;;;;;10.25;32.41;101499.78;10329901;28;20092;-82
2022/03/03 16:26:00;;;;;;;14.07;9.07;;;;;;;9.62;33.78;101495.19;10347806;28;20537;-82
2022/03/03 16:31:00;;;;;;;18.98;11.32;;;;;;;9.17;38.12;101500.25;10349025;28;20488;-82
2022/03/03 16:36:01;;;;;;;17.08;9.85;;;;;;;8.61;39.51;101516.66;10357114;28;20025;-82
2022/03/03 16:41:01;;;;;;;22.98;12.10;;;;;;;8.11;44.53;101505.50;10343324;28;20721;-83
2022/03/03 16:46:02;;;;;;;18.45;10.10;;;;;;;7.47;46.45;101522.00;10344426;28;20046;-83
2022/03/03 16:51:02;;;;;;;12.95;8.95;;;;;;;6.87;49.65;101512.50;10340920;28;20183;-83
2022/03/03 16:56:03;;;;;;;15.52;10.52;;;;;;;6.34;49.31;101521.63;10348143;28;20034;-83
2022/03/03 17:01:04;;;;;;;20.17;11.07;;;;;;;5.97;50.76;101524.00;10328095;28;20541;-83
2022/03/03 17:06:05;;;;;;;17.67;10.75;;;;;;;5.78;52.65;101524.28;10342520;28;20458;-82
2022/03/03 17:11:05;;;;;;;18.47;11.73;;;;;;;5.31;52.87;101523.28;10323982;28;20124;-83
2022/03/03 17:16:09;;;;;;;21.30;12.00;;;;;;;4.85;54.88;101536.97;10326308;28;20477;-83
2022/03/03 17:21:10;;;;;;;18.73;11.07;;;;;;;4.60;56.78;101539.22;10325114;28;20140;-83
2022/03/03 17:26:11;;;;;;;25.63;12.18;;;;;;;4.33;57.81;101549.09;10334476;28;20108;-83
2022/03/03 17:31:12;;;;;;;18.42;9.95;;;;;;;4.07;58.70;101547.81;10322986;28;20048;-83
2022/03/03 17:36:13;;;;;;;26.50;13.23;;;;;;;3.71;58.11;101556.84;10317705;28;20026;-83
2022/03/03 17:41:13;;;;;;;26.67;14.85;;;;;;;3.49;59.68;101560.16;10333670;28;20109;-82
2022/03/03 17:46:14;;;;;;;24.63;13.27;;;;;;;3.25;60.75;101570.94;10305760;28;20497;-80
2022/03/03 17:51:18;;;;;;;20.98;13.43;;;;;;;2.95;61.48;101578.69;10326941;28;20185;-79
2022/03/03 17:56:19;;;;;;;25.65;12.63;;;;;;;2.71;62.24;101585.13;10328279;28;20042;-80
2022/03/03 18:01:19;;;;;;;29.33;13.98;;;;;;;2.55;62.83;101573.41;10354427;28;20034;-79
2022/03/03 18:06:26;;;;;;;25.85;13.43;;;;;;;2.37;62.78;101574.31;10338041;28;20038;-80
2022/03/03 18:11:28;;;;;;;17.85;11.82;;;;;;;2.18;64.25;101580.34;10352180;28;20049;-79
2022/03/03 18:16:28;;;;;;;20.70;11.80;;;;;;;2.01;65.32;101587.44;10330499;28;20039;-79
2022/03/03 18:21:29;;;;;;;18.85;12.30;;;;;;;2.01;66.11;101595.19;10306236;28;20053;-79
2022/03/03 18:26:32;;;;;;;23.63;13.52;;;;;;;1.97;66.73;101603.41;10346599;28;20026;-81
2022/03/03 18:31:34;;;;;;;18.90;11.80;;;;;;;1.80;66.30;101607.00;10312131;28;20478;-83
2022/03/03 18:36:34;;;;;;;18.70;12.18;;;;;;;1.73;65.05;101613.22;10348140;28;20116;-84
2022/03/03 18:41:35;;;;;;;17.55;12.65;;;;;;;1.60;67.12;101617.97;10347588;28;20030;-80
2022/03/03 18:46:36;;;;;;;23.52;13.55;;;;;;;1.39;67.19;101617.72;10325404;28;20070;-79
2022/03/03 18:51:36;;;;;;;25.33;13.88;;;;;;;1.23;67.75;101620.50;10345907;28;20030;-80
2022/03/03 18:56:37;;;;;;;18.20;12.60;;;;;;;1.12;68.47;101622.03;10329376;28;20073;-81
2022/03/03 19:01:40;;;;;;;24.40;14.23;;;;;;;1.00;69.17;101615.66;10350192;28;20566;-83
2022/03/03 19:06:42;;;;;;;26.20;13.88;;;;;;;0.84;69.47;101632.22;10315055;28;20038;-83
2022/03/03 19:11:43;;;;;;;23.80;13.07;;;;;;;0.93;69.13;101623.56;10357694;28;20030;-80
2022/03/03 19:16:44;;;;;;;19.98;12.30;;;;;;;1.23;66.60;101629.91;10316144;28;20042;-82
2022/03/03 19:21:45;;;;;;;25.33;13.03;;;;;;;0.95;67.65;101629.78;10315636;28;20038;-82
2022/03/03 19:26:45;;;;;;;24.67;14.13;;;;;;;0.62;69.33;101636.91;10319356;28;20061;-83
2022/03/03 19:31:46;;;;;;;20.25;14.68;;;;;;;0.49;70.93;101644.16;10316704;28;20061;-82
2022/03/03 19:36:53;;;;;;;23.00;13.82;;;;;;;0.55;70.70;101649.94;10354962;28;20413;-82
2022/03/03 19:41:57;;;;;;;24.63;14.45;;;;;;;0.25;71.43;101636.69;10350498;28;20053;-81
2022/03/03 19:46:57;;;;;;;23.80;14.52;;;;;;;0.07;71.83;101640.88;10303551;28;20053;-82
2022/03/03 19:51:58;;;;;;;28.38;15.95;;;;;;;-0.07;73.71;101646.28;10333934;28;20041;-81
2022/03/03 19:56:58;;;;;;;23.13;13.80;;;;;;;-0.01;73.21;101655.53;10328535;28;20118;-81
2022/03/03 20:01:59;;;;;;;25.52;15.80;;;;;;;0.06;72.36;101645.84;10304740;28;20074;-83
2022/03/03 20:06:59;;;;;;;21.30;13.52;;;;;;;-0.01;72.07;101636.59;10296779;28;20057;-83
2022/03/03 20:12:00;;;;;;;25.83;14.70;;;;;;;0.10;71.71;101645.41;10315855;28;20030;-82
2022/03/03 20:17:00;;;;;;;21.55;14.80;;;;;;;0.16;72.05;101650.28;10311968;28;20105;-82
2022/03/03 20:22:02;;;;;;;23.65;14.77;;;;;;;0.24;71.40;101646.84;10298479;28;20037;-83
2022/03/03 20:27:03;;;;;;;23.45;13.65;;;;;;;-0.02;72.52;101658.84;10295914;28;20035;-80
2022/03/03 20:32:04;;;;;;;20.98;13.48;;;;;;;0.16;72.24;101661.50;10330899;28;20069;-83
2022/03/03 20:37:05;;;;;;;21.30;14.40;;;;;;;0.28;70.99;101656.69;10312402;28;20118;-83
2022/03/03 20:42:05;;;;;;;24.70;15.40;;;;;;;0.01;71.52;101671.13;10290872;28;20372;-83
2022/03/03 20:47:07;;;;;;;18.63;13.80;;;;;;;0.07;71.57;101671.78;10305186;28;20043;-83
2022/03/03 20:52:08;;;;;;;20.88;13.40;;;;;;;0.20;71.96;101663.63;10289280;28;20491;-83
2022/03/03 20:57:09;;;;;;;18.85;12.85;;;;;;;0.21;71.38;101675.75;10323077;28;20072;-82
2022/03/03 21:02:09;;;;;;;35.58;21.38;;;;;;;0.23;70.70;101673.34;10294971;28;20038;-82
2022/03/03 21:07:10;;;;;;;22.17;13.35;;;;;;;0.25;70.26;101675.31;10325436;28;20038;-82
2022/03/03 21:12:11;;;;;;;20.70;12.85;;;;;;;0.16;70.33;101679.50;10328692;28;20438;-82
2022/03/03 21:17:11;;;;;;;18.90;11.57;;;;;;;0.23;70.59;101686.22;10309171;28;20023;-82
2022/03/03 21:22:12;;;;;;;23.63;12.90;;;;;;;0.13;70.91;101689.50;10287939;28;20129;-82
2022/03/03 21:27:12;;;;;;;23.45;13.50;;;;;;;0.18;69.82;101687.41;10306988;28;20057;-82
2022/03/03 21:32:13;;;;;;;23.48;13.15;;;;;;;0.34;68.86;101692.44;10320062;28;20084;-82
2022/03/03 21:37:13;;;;;;;23.25;12.88;;;;;;;0.21;69.29;101693.75;10291835;28;20054;-82
2022/03/03 21:42:14;;;;;;;18.92;12.23;;;;;;;0.37;69.08;101693.69;10307213;28;20084;-82
2022/03/03 21:47:14;;;;;;;19.00;12.30;;;;;;;0.64;67.31;101688.56;10266794;28;1214420;-82
2022/03/03 21:52:15;;;;;;;18.60;11.18;;;;;;;0.92;65.83;101696.50;10291926;28;20038;-82
2022/03/03 21:57:15;;;;;;;18.45;10.73;;;;;;;0.92;65.99;101705.16;10306440;28;20526;-82
2022/03/03 22:02:19;;;;;;;19.33;11.82;;;;;;;1.03;64.78;101713.94;10302485;28;20035;-82
2022/03/03 22:07:20;;;;;;;21.42;11.23;;;;;;;0.86;65.28;101713.16;10310702;28;20379;-82
2022/03/03 22:12:21;;;;;;;20.13;12.48;;;;;;;0.92;65.56;101722.28;10330848;28;20042;-82
2022/03/03 22:17:21;;;;;;;21.58;11.20;;;;;;;0.97;65.55;101728.78;10317997;28;20035;-82
2022/03/03 22:22:22;;;;;;;21.00;11.30;;;;;;;0.93;65.21;101725.03;10288049;28;20463;-82
2022/03/03 22:27:22;;;;;;;26.02;11.88;;;;;;;0.85;65.47;101725.91;10311752;28;20043;-82
2022/03/03 22:32:23;;;;;;;18.48;10.85;;;;;;;0.64;65.92;101724.66;10303023;28;20062;-82
2022/03/03 22:37:23;;;;;;;21.10;11.63;;;;;;;0.40;66.67;101737.78;10312430;28;20062;-82
2022/03/03 22:42:24;;;;;;;25.98;11.45;;;;;;;0.08;67.39;101735.38;10304096;28;20471;-82
2022/03/03 22:47:24;;;;;;;21.55;12.52;;;;;;;-0.17;68.75;101735.41;10319579;28;20039;-82
2022/03/03 22:52:25;;;;;;;16.23;10.65;;;;;;;-0.23;69.50;101742.47;10319911;28;20465;-82